sensor_id;sensor_type;location;lat;lon;timestamp;pressure;altitude;pressure_sealevel;temperature;humidity
76730;BME280;65653;53.106;18.046;2023-10-19T00:01:17;100406.36;;;3.11;88.97
76730;BME280;65653;53.106;18.046;2023-10-19T00:03:44;100404.38;;;3.04;89.26
76730;BME280;65653;53.106;18.046;2023-10-19T00:06:11;100397.71;;;2.96;89.36
76730;BME280;65653;53.106;18.046;2023-10-19T00:08:38;100400.48;;;2.93;90.39
76730;BME280;65653;53.106;18.046;2023-10-19T00:11:08;100394.33;;;2.92;91.00
76730;BME280;65653;53.106;18.046;2023-10-19T00:13:48;100392.33;;;2.91;91.30
76730;BME280;65653;53.106;18.046;2023-10-19T00:16:20;100392.48;;;2.89;91.98
76730;BME280;65653;53.106;18.046;2023-10-19T00:18:52;100392.86;;;2.87;92.16
76730;BME280;65653;53.106;18.046;2023-10-19T00:21:19;100383.65;;;2.86;92.52
76730;BME280;65653;53.106;18.046;2023-10-19T00:23:57;100380.95;;;2.84;93.09
76730;BME280;65653;53.106;18.046;2023-10-19T00:26:25;100375.16;;;2.82;92.90
76730;BME280;65653;53.106;18.046;2023-10-19T00:28:51;100371.11;;;2.77;92.64
76730;BME280;65653;53.106;18.046;2023-10-19T00:31:27;100373.10;;;2.72;92.83
76730;BME280;65653;53.106;18.046;2023-10-19T00:33:54;100366.40;;;2.67;92.47
76730;BME280;65653;53.106;18.046;2023-10-19T00:36:22;100364.13;;;2.63;92.91
76730;BME280;65653;53.106;18.046;2023-10-19T00:38:49;100363.55;;;2.62;93.41
76730;BME280;65653;53.106;18.046;2023-10-19T00:41:18;100361.92;;;2.60;93.73
76730;BME280;65653;53.106;18.046;2023-10-19T00:43:50;100362.54;;;2.59;94.34
76730;BME280;65653;53.106;18.046;2023-10-19T00:46:24;100358.68;;;2.59;94.94
76730;BME280;65653;53.106;18.046;2023-10-19T00:49:02;100356.86;;;2.59;95.00
76730;BME280;65653;53.106;18.046;2023-10-19T00:51:36;100352.80;;;2.60;94.83
76730;BME280;65653;53.106;18.046;2023-10-19T00:54:15;100355.47;;;2.62;95.78
76730;BME280;65653;53.106;18.046;2023-10-19T00:56:46;100352.24;;;2.65;96.16
76730;BME280;65653;53.106;18.046;2023-10-19T00:59:18;100346.27;;;2.66;95.95
76730;BME280;65653;53.106;18.046;2023-10-19T01:01:51;100346.59;;;2.67;95.98
76730;BME280;65653;53.106;18.046;2023-10-19T01:04:22;100345.34;;;2.65;95.30
76730;BME280;65653;53.106;18.046;2023-10-19T01:06:49;100344.79;;;2.63;95.06
76730;BME280;65653;53.106;18.046;2023-10-19T01:09:38;100349.20;;;2.63;95.63
76730;BME280;65653;53.106;18.046;2023-10-19T01:12:05;100339.94;;;2.62;95.43
76730;BME280;65653;53.106;18.046;2023-10-19T01:15:04;100337.88;;;2.63;95.16
76730;BME280;65653;53.106;18.046;2023-10-19T01:17:35;100336.58;;;2.63;95.45
76730;BME280;65653;53.106;18.046;2023-10-19T01:20:15;100334.33;;;2.62;95.66
76730;BME280;65653;53.106;18.046;2023-10-19T01:22:53;100330.39;;;2.60;95.15
76730;BME280;65653;53.106;18.046;2023-10-19T01:25:58;100323.60;;;2.57;94.76
76730;BME280;65653;53.106;18.046;2023-10-19T01:28:35;100320.96;;;2.56;94.89
76730;BME280;65653;53.106;18.046;2023-10-19T01:31:09;100319.48;;;2.58;96.30
76730;BME280;65653;53.106;18.046;2023-10-19T01:33:41;100315.12;;;2.63;97.30
76730;BME280;65653;53.106;18.046;2023-10-19T01:36:12;100316.86;;;2.63;96.98
76730;BME280;65653;53.106;18.046;2023-10-19T01:38:41;100313.89;;;2.62;96.06
76730;BME280;65653;53.106;18.046;2023-10-19T01:41:09;100306.50;;;2.60;96.22
76730;BME280;65653;53.106;18.046;2023-10-19T01:43:43;100306.85;;;2.56;95.88
76730;BME280;65653;53.106;18.046;2023-10-19T01:46:12;100300.89;;;2.53;95.76
76730;BME280;65653;53.106;18.046;2023-10-19T01:48:41;100306.46;;;2.50;96.13
76730;BME280;65653;53.106;18.046;2023-10-19T01:51:09;100298.38;;;2.47;95.96
76730;BME280;65653;53.106;18.046;2023-10-19T01:53:37;100289.52;;;2.45;96.27
76730;BME280;65653;53.106;18.046;2023-10-19T01:56:14;100285.92;;;2.43;96.03
76730;BME280;65653;53.106;18.046;2023-10-19T01:58:42;100279.59;;;2.41;96.03
76730;BME280;65653;53.106;18.046;2023-10-19T02:01:09;100279.90;;;2.40;96.46
76730;BME280;65653;53.106;18.046;2023-10-19T02:03:43;100276.26;;;2.38;96.26
76730;BME280;65653;53.106;18.046;2023-10-19T02:06:10;100275.35;;;2.35;96.27
76730;BME280;65653;53.106;18.046;2023-10-19T02:08:50;100271.79;;;2.31;96.34
76730;BME280;65653;53.106;18.046;2023-10-19T02:11:22;100265.53;;;2.29;96.65
76730;BME280;65653;53.106;18.046;2023-10-19T02:13:50;100258.17;;;2.29;96.24
76730;BME280;65653;53.106;18.046;2023-10-19T02:16:19;100257.59;;;2.27;96.44
76730;BME280;65653;53.106;18.046;2023-10-19T02:18:49;100251.89;;;2.28;96.63
76730;BME280;65653;53.106;18.046;2023-10-19T02:21:17;100243.80;;;2.28;96.73
76730;BME280;65653;53.106;18.046;2023-10-19T02:23:49;100241.72;;;2.29;96.92
76730;BME280;65653;53.106;18.046;2023-10-19T02:26:18;100236.16;;;2.30;97.06
76730;BME280;65653;53.106;18.046;2023-10-19T02:28:47;100234.00;;;2.31;97.44
76730;BME280;65653;53.106;18.046;2023-10-19T02:31:13;100230.42;;;2.31;97.28
76730;BME280;65653;53.106;18.046;2023-10-19T02:33:48;100229.95;;;2.30;97.03
76730;BME280;65653;53.106;18.046;2023-10-19T02:36:18;100230.80;;;2.29;97.22
76730;BME280;65653;53.106;18.046;2023-10-19T02:38:48;100224.05;;;2.27;96.81
76730;BME280;65653;53.106;18.046;2023-10-19T02:41:16;100217.55;;;2.25;96.97
76730;BME280;65653;53.106;18.046;2023-10-19T02:43:44;100214.41;;;2.24;96.79
76730;BME280;65653;53.106;18.046;2023-10-19T02:46:17;100211.21;;;2.23;97.24
76730;BME280;65653;53.106;18.046;2023-10-19T02:48:44;100205.33;;;2.25;98.95
76730;BME280;65653;53.106;18.046;2023-10-19T02:51:11;100199.52;;;2.29;100.00
76730;BME280;65653;53.106;18.046;2023-10-19T02:53:39;100195.35;;;2.30;99.94
76730;BME280;65653;53.106;18.046;2023-10-19T02:56:10;100187.73;;;2.30;99.70
76730;BME280;65653;53.106;18.046;2023-10-19T02:58:37;100184.52;;;2.29;99.96
76730;BME280;65653;53.106;18.046;2023-10-19T03:01:11;100179.15;;;2.28;100.00
76730;BME280;65653;53.106;18.046;2023-10-19T03:03:38;100176.17;;;2.26;100.00
76730;BME280;65653;53.106;18.046;2023-10-19T03:06:05;100172.05;;;2.25;100.00
76730;BME280;65653;53.106;18.046;2023-10-19T03:08:32;100169.27;;;2.24;100.00
76730;BME280;65653;53.106;18.046;2023-10-19T03:10:59;100165.48;;;2.23;100.00
76730;BME280;65653;53.106;18.046;2023-10-19T03:13:31;100160.96;;;2.23;100.00
76730;BME280;65653;53.106;18.046;2023-10-19T03:16:00;100165.02;;;2.22;100.00
76730;BME280;65653;53.106;18.046;2023-10-19T03:18:27;100163.42;;;2.21;100.00
76730;BME280;65653;53.106;18.046;2023-10-19T03:20:55;100169.35;;;2.20;100.00
76730;BME280;65653;53.106;18.046;2023-10-19T03:23:21;100170.20;;;2.19;100.00
76730;BME280;65653;53.106;18.046;2023-10-19T03:25:53;100165.70;;;2.18;100.00
76730;BME280;65653;53.106;18.046;2023-10-19T03:28:44;100161.83;;;2.17;100.00
76730;BME280;65653;53.106;18.046;2023-10-19T03:31:11;100153.94;;;2.15;100.00
76730;BME280;65653;53.106;18.046;2023-10-19T03:33:47;100152.77;;;2.14;100.00
76730;BME280;65653;53.106;18.046;2023-10-19T03:36:21;100151.96;;;2.14;100.00
76730;BME280;65653;53.106;18.046;2023-10-19T03:38:48;100144.10;;;2.12;100.00
76730;BME280;65653;53.106;18.046;2023-10-19T03:41:18;100137.84;;;2.11;100.00
76730;BME280;65653;53.106;18.046;2023-10-19T03:43:52;100132.85;;;2.10;100.00
76730;BME280;65653;53.106;18.046;2023-10-19T03:46:20;100130.46;;;2.09;100.00
76730;BME280;65653;53.106;18.046;2023-10-19T03:48:57;100129.33;;;2.07;100.00
76730;BME280;65653;53.106;18.046;2023-10-19T03:51:37;100128.22;;;2.06;100.00
76730;BME280;65653;53.106;18.046;2023-10-19T03:54:06;100124.51;;;2.05;100.00
76730;BME280;65653;53.106;18.046;2023-10-19T03:56:51;100124.66;;;2.03;100.00
76730;BME280;65653;53.106;18.046;2023-10-19T03:59:18;100122.05;;;2.01;100.00
76730;BME280;65653;53.106;18.046;2023-10-19T04:01:46;100116.98;;;1.99;99.98
76730;BME280;65653;53.106;18.046;2023-10-19T04:04:13;100115.60;;;1.97;100.00
76730;BME280;65653;53.106;18.046;2023-10-19T04:06:40;100111.96;;;1.95;100.00
76730;BME280;65653;53.106;18.046;2023-10-19T04:09:06;100105.52;;;1.94;100.00
76730;BME280;65653;53.106;18.046;2023-10-19T04:11:33;100104.77;;;1.94;100.00
76730;BME280;65653;53.106;18.046;2023-10-19T04:14:15;100104.26;;;1.94;100.00
76730;BME280;65653;53.106;18.046;2023-10-19T04:16:42;100106.24;;;1.92;100.00
76730;BME280;65653;53.106;18.046;2023-10-19T04:19:13;100110.91;;;1.91;100.00
76730;BME280;65653;53.106;18.046;2023-10-19T04:21:42;100109.89;;;1.90;100.00
76730;BME280;65653;53.106;18.046;2023-10-19T04:24:13;100105.67;;;1.89;100.00
76730;BME280;65653;53.106;18.046;2023-10-19T04:26:40;100103.20;;;1.88;100.00
76730;BME280;65653;53.106;18.046;2023-10-19T04:29:08;100101.96;;;1.88;99.91
76730;BME280;65653;53.106;18.046;2023-10-19T04:31:38;100098.19;;;1.87;100.00
76730;BME280;65653;53.106;18.046;2023-10-19T04:34:17;100095.21;;;1.88;100.00
76730;BME280;65653;53.106;18.046;2023-10-19T04:36:50;100096.45;;;1.88;100.00
76730;BME280;65653;53.106;18.046;2023-10-19T04:39:19;100092.36;;;1.89;100.00
76730;BME280;65653;53.106;18.046;2023-10-19T04:41:46;100089.30;;;1.89;100.00
76730;BME280;65653;53.106;18.046;2023-10-19T04:44:14;100086.19;;;1.89;100.00
76730;BME280;65653;53.106;18.046;2023-10-19T04:46:42;100085.61;;;1.89;100.00
76730;BME280;65653;53.106;18.046;2023-10-19T04:49:08;100078.52;;;1.89;100.00
76730;BME280;65653;53.106;18.046;2023-10-19T04:51:35;100074.95;;;1.88;100.00
76730;BME280;65653;53.106;18.046;2023-10-19T04:54:05;100076.48;;;1.88;100.00
76730;BME280;65653;53.106;18.046;2023-10-19T04:56:35;100070.09;;;1.88;100.00
76730;BME280;65653;53.106;18.046;2023-10-19T04:59:04;100064.98;;;1.88;100.00
76730;BME280;65653;53.106;18.046;2023-10-19T05:01:32;100063.76;;;1.89;100.00
76730;BME280;65653;53.106;18.046;2023-10-19T05:04:01;100067.68;;;1.92;100.00
76730;BME280;65653;53.106;18.046;2023-10-19T05:06:28;100066.43;;;1.93;100.00
76730;BME280;65653;53.106;18.046;2023-10-19T05:08:54;100069.86;;;1.95;100.00
76730;BME280;65653;53.106;18.046;2023-10-19T05:11:21;100073.44;;;1.96;99.98
76730;BME280;65653;53.106;18.046;2023-10-19T05:13:47;100072.55;;;1.97;99.94
76730;BME280;65653;53.106;18.046;2023-10-19T05:16:14;100067.78;;;1.99;100.00
76730;BME280;65653;53.106;18.046;2023-10-19T05:18:41;100063.06;;;2.00;100.00
76730;BME280;65653;53.106;18.046;2023-10-19T05:21:08;100062.87;;;2.02;100.00
76730;BME280;65653;53.106;18.046;2023-10-19T05:23:36;100066.19;;;2.04;100.00
76730;BME280;65653;53.106;18.046;2023-10-19T05:26:04;100066.88;;;2.06;100.00
76730;BME280;65653;53.106;18.046;2023-10-19T05:28:32;100066.54;;;2.09;100.00
76730;BME280;65653;53.106;18.046;2023-10-19T05:30:59;100063.59;;;2.11;100.00
76730;BME280;65653;53.106;18.046;2023-10-19T05:33:27;100063.55;;;2.13;100.00
76730;BME280;65653;53.106;18.046;2023-10-19T05:35:53;100068.20;;;2.15;100.00
76730;BME280;65653;53.106;18.046;2023-10-19T05:38:20;100071.79;;;2.18;99.97
76730;BME280;65653;53.106;18.046;2023-10-19T05:40:48;100073.16;;;2.20;99.97
76730;BME280;65653;53.106;18.046;2023-10-19T05:43:16;100074.84;;;2.23;99.84
76730;BME280;65653;53.106;18.046;2023-10-19T05:45:43;100074.48;;;2.26;99.79
76730;BME280;65653;53.106;18.046;2023-10-19T05:48:10;100075.16;;;2.31;100.00
76730;BME280;65653;53.106;18.046;2023-10-19T05:50:38;100072.92;;;2.37;99.89
76730;BME280;65653;53.106;18.046;2023-10-19T05:53:05;100071.09;;;2.43;99.93
76730;BME280;65653;53.106;18.046;2023-10-19T05:55:32;100071.46;;;2.50;99.92
76730;BME280;65653;53.106;18.046;2023-10-19T05:57:59;100067.80;;;2.56;99.81
76730;BME280;65653;53.106;18.046;2023-10-19T06:00:26;100065.94;;;2.63;99.32
76730;BME280;65653;53.106;18.046;2023-10-19T06:02:53;100062.15;;;2.69;99.12
76730;BME280;65653;53.106;18.046;2023-10-19T06:05:20;100055.05;;;2.75;99.15
76730;BME280;65653;53.106;18.046;2023-10-19T06:07:48;100056.85;;;2.82;98.97
76730;BME280;65653;53.106;18.046;2023-10-19T06:10:20;100058.77;;;2.90;98.74
76730;BME280;65653;53.106;18.046;2023-10-19T06:12:50;100053.58;;;2.98;98.57
76730;BME280;65653;53.106;18.046;2023-10-19T06:15:19;100048.38;;;3.05;98.14
76730;BME280;65653;53.106;18.046;2023-10-19T06:17:48;100047.52;;;3.11;97.66
76730;BME280;65653;53.106;18.046;2023-10-19T06:20:16;100048.27;;;3.13;97.78
76730;BME280;65653;53.106;18.046;2023-10-19T06:22:53;100058.76;;;3.18;97.26
76730;BME280;65653;53.106;18.046;2023-10-19T06:25:23;100061.07;;;3.24;96.91
76730;BME280;65653;53.106;18.046;2023-10-19T06:27:52;100058.73;;;3.30;96.71
76730;BME280;65653;53.106;18.046;2023-10-19T06:30:20;100063.30;;;3.34;96.52
76730;BME280;65653;53.106;18.046;2023-10-19T06:32:51;100060.27;;;3.40;96.25
76730;BME280;65653;53.106;18.046;2023-10-19T06:35:19;100051.20;;;3.44;96.14
76730;BME280;65653;53.106;18.046;2023-10-19T06:37:46;100052.02;;;3.49;96.26
76730;BME280;65653;53.106;18.046;2023-10-19T06:40:16;100055.52;;;3.54;96.21
76730;BME280;65653;53.106;18.046;2023-10-19T06:42:44;100057.45;;;3.58;95.92
76730;BME280;65653;53.106;18.046;2023-10-19T06:45:13;100051.58;;;3.63;95.76
76730;BME280;65653;53.106;18.046;2023-10-19T06:47:43;100051.76;;;3.67;95.34
76730;BME280;65653;53.106;18.046;2023-10-19T06:50:13;100059.06;;;3.74;95.14
76730;BME280;65653;53.106;18.046;2023-10-19T06:52:43;100061.48;;;3.78;95.05
76730;BME280;65653;53.106;18.046;2023-10-19T06:55:11;100052.77;;;3.82;94.87
76730;BME280;65653;53.106;18.046;2023-10-19T06:57:43;100043.05;;;3.89;94.64
76730;BME280;65653;53.106;18.046;2023-10-19T07:00:19;100038.10;;;3.95;94.29
76730;BME280;65653;53.106;18.046;2023-10-19T07:02:47;100034.77;;;4.03;93.95
76730;BME280;65653;53.106;18.046;2023-10-19T07:05:15;100032.35;;;4.10;93.77
76730;BME280;65653;53.106;18.046;2023-10-19T07:07:49;100023.09;;;4.15;93.58
76730;BME280;65653;53.106;18.046;2023-10-19T07:10:18;100021.80;;;4.26;93.49
76730;BME280;65653;53.106;18.046;2023-10-19T07:12:47;100014.80;;;4.35;92.96
76730;BME280;65653;53.106;18.046;2023-10-19T07:15:15;100012.85;;;4.46;92.45
76730;BME280;65653;53.106;18.046;2023-10-19T07:17:42;100011.88;;;4.55;92.03
76730;BME280;65653;53.106;18.046;2023-10-19T07:20:10;100015.46;;;4.65;91.65
76730;BME280;65653;53.106;18.046;2023-10-19T07:22:59;100009.50;;;4.73;91.14
76730;BME280;65653;53.106;18.046;2023-10-19T07:25:33;99997.55;;;4.78;91.00
76730;BME280;65653;53.106;18.046;2023-10-19T07:28:04;99995.53;;;4.86;90.86
76730;BME280;65653;53.106;18.046;2023-10-19T07:30:32;99994.48;;;4.91;90.36
76730;BME280;65653;53.106;18.046;2023-10-19T07:32:59;99989.95;;;4.95;90.20
76730;BME280;65653;53.106;18.046;2023-10-19T07:35:26;99994.73;;;4.97;90.28
76730;BME280;65653;53.106;18.046;2023-10-19T07:37:54;99989.36;;;4.95;90.08
76730;BME280;65653;53.106;18.046;2023-10-19T07:40:22;99986.41;;;4.99;90.24
76730;BME280;65653;53.106;18.046;2023-10-19T07:42:51;99981.76;;;5.03;90.10
76730;BME280;65653;53.106;18.046;2023-10-19T07:45:20;99978.52;;;5.08;89.92
76730;BME280;65653;53.106;18.046;2023-10-19T07:47:48;99980.35;;;5.14;89.75
76730;BME280;65653;53.106;18.046;2023-10-19T07:50:18;99985.00;;;5.22;89.65
76730;BME280;65653;53.106;18.046;2023-10-19T07:52:52;99981.73;;;5.32;89.44
76730;BME280;65653;53.106;18.046;2023-10-19T07:55:21;99977.29;;;5.38;89.32
76730;BME280;65653;53.106;18.046;2023-10-19T07:57:51;99971.88;;;5.50;89.19
76730;BME280;65653;53.106;18.046;2023-10-19T08:00:19;99968.27;;;5.64;88.91
76730;BME280;65653;53.106;18.046;2023-10-19T08:02:46;99960.29;;;5.79;88.31
76730;BME280;65653;53.106;18.046;2023-10-19T08:05:15;99955.36;;;5.94;88.03
76730;BME280;65653;53.106;18.046;2023-10-19T08:07:42;99956.20;;;6.06;87.33
76730;BME280;65653;53.106;18.046;2023-10-19T08:10:12;99945.86;;;6.18;87.26
76730;BME280;65653;53.106;18.046;2023-10-19T08:12:40;99940.31;;;6.27;86.98
76730;BME280;65653;53.106;18.046;2023-10-19T08:15:10;99938.98;;;6.30;87.13
76730;BME280;65653;53.106;18.046;2023-10-19T08:17:38;99939.20;;;6.30;87.04
76730;BME280;65653;53.106;18.046;2023-10-19T08:20:10;99938.58;;;6.32;87.27
76730;BME280;65653;53.106;18.046;2023-10-19T08:22:42;99932.59;;;6.37;87.11
76730;BME280;65653;53.106;18.046;2023-10-19T08:25:10;99926.05;;;6.44;87.06
76730;BME280;65653;53.106;18.046;2023-10-19T08:27:42;99915.92;;;6.52;86.77
76730;BME280;65653;53.106;18.046;2023-10-19T08:30:12;99912.89;;;6.64;86.34
76730;BME280;65653;53.106;18.046;2023-10-19T08:32:41;99916.61;;;6.80;86.10
76730;BME280;65653;53.106;18.046;2023-10-19T08:35:19;99917.68;;;6.94;85.47
76730;BME280;65653;53.106;18.046;2023-10-19T08:37:54;99911.13;;;7.09;85.37
76730;BME280;65653;53.106;18.046;2023-10-19T08:40:24;99919.11;;;7.24;84.42
76730;BME280;65653;53.106;18.046;2023-10-19T08:42:53;99912.94;;;7.30;84.32
76730;BME280;65653;53.106;18.046;2023-10-19T08:45:22;99903.89;;;7.39;84.02
76730;BME280;65653;53.106;18.046;2023-10-19T08:47:56;99897.81;;;7.47;83.85
76730;BME280;65653;53.106;18.046;2023-10-19T08:50:27;99905.70;;;7.55;83.66
76730;BME280;65653;53.106;18.046;2023-10-19T08:52:56;99905.11;;;7.64;83.65
76730;BME280;65653;53.106;18.046;2023-10-19T08:55:24;99903.53;;;7.72;83.26
76730;BME280;65653;53.106;18.046;2023-10-19T08:57:51;99901.66;;;7.74;82.77
76730;BME280;65653;53.106;18.046;2023-10-19T09:00:19;99900.86;;;7.76;82.59
76730;BME280;65653;53.106;18.046;2023-10-19T09:02:46;99898.05;;;7.77;82.52
76730;BME280;65653;53.106;18.046;2023-10-19T09:05:13;99900.02;;;7.76;82.72
76730;BME280;65653;53.106;18.046;2023-10-19T09:07:47;99894.86;;;7.79;82.91
76730;BME280;65653;53.106;18.046;2023-10-19T09:10:16;99899.56;;;7.81;82.78
76730;BME280;65653;53.106;18.046;2023-10-19T09:12:43;99891.80;;;7.80;82.84
76730;BME280;65653;53.106;18.046;2023-10-19T09:15:22;99892.81;;;7.79;83.14
76730;BME280;65653;53.106;18.046;2023-10-19T09:17:53;99882.90;;;7.82;83.10
76730;BME280;65653;53.106;18.046;2023-10-19T09:20:21;99879.69;;;7.82;82.92
76730;BME280;65653;53.106;18.046;2023-10-19T09:22:54;99875.02;;;7.80;82.99
76730;BME280;65653;53.106;18.046;2023-10-19T09:25:21;99873.72;;;7.87;83.15
76730;BME280;65653;53.106;18.046;2023-10-19T09:27:49;99870.11;;;7.92;82.86
76730;BME280;65653;53.106;18.046;2023-10-19T09:30:16;99869.20;;;7.97;82.98
76730;BME280;65653;53.106;18.046;2023-10-19T09:32:48;99862.52;;;8.07;82.78
76730;BME280;65653;53.106;18.046;2023-10-19T09:35:15;99856.55;;;8.16;82.47
76730;BME280;65653;53.106;18.046;2023-10-19T09:37:42;99855.16;;;8.26;82.19
76730;BME280;65653;53.106;18.046;2023-10-19T09:40:12;99845.76;;;8.36;81.34
76730;BME280;65653;53.106;18.046;2023-10-19T09:42:40;99832.98;;;8.41;80.74
76730;BME280;65653;53.106;18.046;2023-10-19T09:45:16;99831.34;;;8.47;80.67
76730;BME280;65653;53.106;18.046;2023-10-19T09:47:49;99825.90;;;8.50;79.85
76730;BME280;65653;53.106;18.046;2023-10-19T09:50:17;99823.64;;;8.58;79.79
76730;BME280;65653;53.106;18.046;2023-10-19T09:52:44;99820.53;;;8.63;79.25
76730;BME280;65653;53.106;18.046;2023-10-19T09:55:33;99817.03;;;8.72;79.29
76730;BME280;65653;53.106;18.046;2023-10-19T09:58:19;99813.68;;;8.91;79.18
76730;BME280;65653;53.106;18.046;2023-10-19T10:00:48;99803.33;;;9.15;77.95
76730;BME280;65653;53.106;18.046;2023-10-19T10:03:47;99791.35;;;9.41;77.37
76730;BME280;65653;53.106;18.046;2023-10-19T10:06:16;99782.33;;;9.74;76.49
76730;BME280;65653;53.106;18.046;2023-10-19T10:08:47;99771.40;;;10.03;75.39
76730;BME280;65653;53.106;18.046;2023-10-19T10:11:20;99771.30;;;10.42;73.80
76730;BME280;65653;53.106;18.046;2023-10-19T10:13:48;99773.30;;;10.60;72.28
76730;BME280;65653;53.106;18.046;2023-10-19T10:16:21;99773.95;;;10.76;71.92
76730;BME280;65653;53.106;18.046;2023-10-19T10:18:49;99780.99;;;10.82;70.80
76730;BME280;65653;53.106;18.046;2023-10-19T10:21:20;99778.39;;;10.82;69.70
76730;BME280;65653;53.106;18.046;2023-10-19T10:23:57;99779.94;;;10.87;69.53
76730;BME280;65653;53.106;18.046;2023-10-19T10:26:27;99782.06;;;10.91;69.30
76730;BME280;65653;53.106;18.046;2023-10-19T10:29:21;99781.36;;;11.02;69.27
76730;BME280;65653;53.106;18.046;2023-10-19T10:31:50;99784.30;;;11.10;69.41
76730;BME280;65653;53.106;18.046;2023-10-19T10:37:12;99790.73;;;11.09;68.85
76730;BME280;65653;53.106;18.046;2023-10-19T10:39:42;99790.06;;;11.13;68.42
76730;BME280;65653;53.106;18.046;2023-10-19T10:42:11;99793.23;;;11.14;68.82
76730;BME280;65653;53.106;18.046;2023-10-19T10:44:44;99791.78;;;11.06;69.15
76730;BME280;65653;53.106;18.046;2023-10-19T10:47:22;99785.77;;;10.87;68.67
76730;BME280;65653;53.106;18.046;2023-10-19T10:49:53;99781.44;;;10.63;70.00
76730;BME280;65653;53.106;18.046;2023-10-19T10:54:52;99779.77;;;10.39;70.66
76730;BME280;65653;53.106;18.046;2023-10-19T10:57:19;99781.61;;;10.39;71.04
76730;BME280;65653;53.106;18.046;2023-10-19T10:59:46;99778.16;;;10.32;70.64
76730;BME280;65653;53.106;18.046;2023-10-19T11:02:19;99775.16;;;10.25;71.02
76730;BME280;65653;53.106;18.046;2023-10-19T11:04:48;99774.73;;;10.21;71.59
76730;BME280;65653;53.106;18.046;2023-10-19T11:07:18;99769.30;;;10.20;71.63
76730;BME280;65653;53.106;18.046;2023-10-19T11:09:47;99768.52;;;10.19;71.63
76730;BME280;65653;53.106;18.046;2023-10-19T11:12:14;99770.14;;;10.25;71.98
76730;BME280;65653;53.106;18.046;2023-10-19T11:14:55;99772.67;;;10.27;71.18
76730;BME280;65653;53.106;18.046;2023-10-19T11:17:22;99765.42;;;10.19;70.91
76730;BME280;65653;53.106;18.046;2023-10-19T11:19:57;99752.96;;;10.11;71.14
76730;BME280;65653;53.106;18.046;2023-10-19T11:22:27;99750.39;;;10.13;71.42
76730;BME280;65653;53.106;18.046;2023-10-19T11:24:54;99743.65;;;10.16;71.50
76730;BME280;65653;53.106;18.046;2023-10-19T11:27:25;99731.73;;;10.14;71.37
76730;BME280;65653;53.106;18.046;2023-10-19T11:29:59;99727.70;;;10.14;71.41
76730;BME280;65653;53.106;18.046;2023-10-19T11:32:26;99727.00;;;10.13;71.35
76730;BME280;65653;53.106;18.046;2023-10-19T11:34:54;99728.98;;;10.18;71.62
76730;BME280;65653;53.106;18.046;2023-10-19T11:37:22;99723.02;;;10.30;71.26
76730;BME280;65653;53.106;18.046;2023-10-19T11:39:48;99717.80;;;10.31;70.27
76730;BME280;65653;53.106;18.046;2023-10-19T11:42:18;99715.07;;;10.36;70.45
76730;BME280;65653;53.106;18.046;2023-10-19T11:44:46;99719.40;;;10.41;69.65
76730;BME280;65653;53.106;18.046;2023-10-19T11:47:12;99717.65;;;10.37;69.62
76730;BME280;65653;53.106;18.046;2023-10-19T11:49:41;99707.11;;;10.36;69.84
76730;BME280;65653;53.106;18.046;2023-10-19T11:52:08;99698.79;;;10.32;69.72
76730;BME280;65653;53.106;18.046;2023-10-19T11:54:35;99694.05;;;10.25;70.17
76730;BME280;65653;53.106;18.046;2023-10-19T11:57:01;99684.45;;;10.31;70.33
76730;BME280;65653;53.106;18.046;2023-10-19T11:59:28;99680.77;;;10.34;69.83
76730;BME280;65653;53.106;18.046;2023-10-19T12:01:55;99676.12;;;10.35;69.84
76730;BME280;65653;53.106;18.046;2023-10-19T12:04:23;99666.39;;;10.27;69.88
76730;BME280;65653;53.106;18.046;2023-10-19T12:06:50;99664.83;;;10.24;70.18
76730;BME280;65653;53.106;18.046;2023-10-19T12:09:17;99665.45;;;10.21;70.22
76730;BME280;65653;53.106;18.046;2023-10-19T12:11:44;99661.15;;;10.20;70.15
76730;BME280;65653;53.106;18.046;2023-10-19T12:14:10;99658.71;;;10.22;70.07
76730;BME280;65653;53.106;18.046;2023-10-19T12:16:41;99658.55;;;10.20;69.63
76730;BME280;65653;53.106;18.046;2023-10-19T12:19:08;99657.98;;;10.18;70.14
76730;BME280;65653;53.106;18.046;2023-10-19T12:21:35;99654.83;;;10.15;70.14
76730;BME280;65653;53.106;18.046;2023-10-19T12:24:04;99652.87;;;10.17;70.15
76730;BME280;65653;53.106;18.046;2023-10-19T12:26:31;99647.54;;;10.20;69.69
76730;BME280;65653;53.106;18.046;2023-10-19T12:28:57;99649.42;;;10.18;69.32
76730;BME280;65653;53.106;18.046;2023-10-19T12:31:24;99649.26;;;10.22;69.30
76730;BME280;65653;53.106;18.046;2023-10-19T12:33:52;99643.55;;;10.34;69.13
76730;BME280;65653;53.106;18.046;2023-10-19T12:36:19;99638.94;;;10.39;68.20
76730;BME280;65653;53.106;18.046;2023-10-19T12:38:55;99638.91;;;10.41;67.82
76730;BME280;65653;53.106;18.046;2023-10-19T12:41:21;99632.66;;;10.54;67.81
76730;BME280;65653;53.106;18.046;2023-10-19T12:43:48;99629.23;;;10.64;67.25
76730;BME280;65653;53.106;18.046;2023-10-19T12:46:18;99624.75;;;10.70;66.70
76730;BME280;65653;53.106;18.046;2023-10-19T12:48:45;99637.61;;;10.64;66.49
76730;BME280;65653;53.106;18.046;2023-10-19T12:51:15;99637.63;;;10.52;67.06
76730;BME280;65653;53.106;18.046;2023-10-19T12:53:44;99634.28;;;10.44;67.71
76730;BME280;65653;53.106;18.046;2023-10-19T12:56:12;99632.39;;;10.34;68.25
76730;BME280;65653;53.106;18.046;2023-10-19T12:58:41;99622.98;;;10.19;68.68
76730;BME280;65653;53.106;18.046;2023-10-19T13:01:07;99609.73;;;10.06;69.10
76730;BME280;65653;53.106;18.046;2023-10-19T13:03:43;99603.14;;;9.96;69.51
76730;BME280;65653;53.106;18.046;2023-10-19T13:06:14;99599.91;;;9.87;69.53
76730;BME280;65653;53.106;18.046;2023-10-19T13:08:41;99602.45;;;9.80;69.79
76730;BME280;65653;53.106;18.046;2023-10-19T13:11:08;99593.45;;;9.77;70.03